createdAt,value
2023-12-23T00:00:21.860Z,19.97
2023-12-23T00:00:53.594Z,19.98
2023-12-23T00:01:26.581Z,19.97
2023-12-23T00:01:58.297Z,19.94
2023-12-23T00:02:29.870Z,19.96
2023-12-23T00:03:01.662Z,19.98
2023-12-23T00:03:33.285Z,19.99
2023-12-23T00:04:04.935Z,19.99
2023-12-23T00:04:36.611Z,19.99
2023-12-23T00:05:08.636Z,19.98
2023-12-23T00:05:40.447Z,19.99
2023-12-23T00:06:12.167Z,19.98
2023-12-23T00:06:43.807Z,19.99
2023-12-23T00:07:15.532Z,19.98
2023-12-23T00:07:47.246Z,19.96
2023-12-23T00:08:18.902Z,19.97
2023-12-23T00:08:50.532Z,19.98
2023-12-23T00:09:22.130Z,19.98
2023-12-23T00:09:53.724Z,19.97
2023-12-23T00:10:25.390Z,19.97
2023-12-23T00:10:57.138Z,19.96
2023-12-23T00:11:28.773Z,19.99
2023-12-23T00:12:00.341Z,19.97
2023-12-23T00:12:32.162Z,19.98
2023-12-23T00:13:06.689Z,19.98
2023-12-23T00:13:38.286Z,19.98
2023-12-23T00:14:09.954Z,19.95
2023-12-23T00:14:41.582Z,19.98
2023-12-23T00:15:13.251Z,19.99
2023-12-23T00:15:44.882Z,20.00
2023-12-23T00:16:16.477Z,19.98
2023-12-23T00:16:48.055Z,19.97
2023-12-23T00:17:19.933Z,19.99
2023-12-23T00:17:51.775Z,19.98
2023-12-23T00:18:23.975Z,19.94
2023-12-23T00:18:55.895Z,19.98
2023-12-23T00:19:27.714Z,20.00
2023-12-23T00:19:59.740Z,19.98
2023-12-23T00:20:31.643Z,19.99
2023-12-23T00:21:03.382Z,19.99
2023-12-23T00:21:35.144Z,19.98
2023-12-23T00:22:06.815Z,19.98
2023-12-23T00:22:38.558Z,19.96
2023-12-23T00:23:10.200Z,19.98
2023-12-23T00:23:41.815Z,19.99
2023-12-23T00:24:13.548Z,19.97
2023-12-23T00:24:45.191Z,19.98
2023-12-23T00:25:16.849Z,19.99
2023-12-23T00:25:48.493Z,19.96
2023-12-23T00:26:20.086Z,19.97
2023-12-23T00:26:51.663Z,19.97
2023-12-23T00:27:23.309Z,19.94
2023-12-23T00:27:54.918Z,19.96
2023-12-23T00:28:26.527Z,19.96
2023-12-23T00:28:58.308Z,19.99
2023-12-23T00:29:30.059Z,19.98
2023-12-23T00:30:01.777Z,19.98
2023-12-23T00:30:33.581Z,19.97
2023-12-23T00:31:05.167Z,19.96
2023-12-23T00:31:36.780Z,19.96
2023-12-23T00:32:08.451Z,19.95
2023-12-23T00:32:40.187Z,19.97
2023-12-23T00:33:12.006Z,19.99
2023-12-23T00:33:43.718Z,19.97
2023-12-23T00:34:15.392Z,19.96
2023-12-23T00:34:47.074Z,19.96
2023-12-23T00:35:18.668Z,19.97
2023-12-23T00:35:50.334Z,19.96
2023-12-23T00:36:21.956Z,19.97
2023-12-23T00:36:53.705Z,19.97
2023-12-23T00:37:25.378Z,19.97
2023-12-23T00:37:57.025Z,19.98
2023-12-23T00:38:28.756Z,19.97
2023-12-23T00:39:03.268Z,19.96
2023-12-23T00:39:35.029Z,19.96
2023-12-23T00:40:07.028Z,19.98
2023-12-23T00:40:38.659Z,19.97
2023-12-23T00:41:10.436Z,19.96
2023-12-23T00:41:42.572Z,19.95
2023-12-23T00:42:14.216Z,19.98
2023-12-23T00:42:45.847Z,19.98
2023-12-23T00:43:17.516Z,19.97
2023-12-23T00:43:49.611Z,19.98
2023-12-23T00:44:21.218Z,19.98
2023-12-23T00:44:52.882Z,19.97
2023-12-23T00:45:24.454Z,19.98
2023-12-23T00:45:56.069Z,19.98
2023-12-23T00:46:27.723Z,19.97
2023-12-23T00:46:59.297Z,19.98
2023-12-23T00:47:35.104Z,19.96
2023-12-23T00:48:09.220Z,19.97
2023-12-23T00:48:41.160Z,19.97
2023-12-23T00:49:12.932Z,19.97
2023-12-23T00:49:44.516Z,19.96
2023-12-23T00:50:16.241Z,19.95
2023-12-23T00:50:47.937Z,19.96
2023-12-23T00:51:19.490Z,19.96
2023-12-23T00:51:51.111Z,19.97
2023-12-23T00:52:22.763Z,19.96
2023-12-23T00:52:54.518Z,19.94
2023-12-23T00:53:26.135Z,19.96
2023-12-23T00:53:57.691Z,19.96
2023-12-23T00:54:29.289Z,19.97
2023-12-23T00:55:00.894Z,19.98
2023-12-23T00:55:32.317Z,19.98
2023-12-23T00:56:03.840Z,20.01
2023-12-23T00:56:35.310Z,20.01
2023-12-23T00:57:06.706Z,20.01
2023-12-23T00:57:38.156Z,19.99
2023-12-23T00:58:09.602Z,20.00
2023-12-23T00:58:40.971Z,20.00
2023-12-23T00:59:12.554Z,20.00
2023-12-23T00:59:44.017Z,20.00
2023-12-23T01:00:15.711Z,20.00
2023-12-23T01:00:47.343Z,19.99
2023-12-23T01:01:18.930Z,20.01
2023-12-23T01:01:50.648Z,20.03
2023-12-23T01:02:22.203Z,20.02
2023-12-23T01:02:53.696Z,20.03
2023-12-23T01:03:25.260Z,20.04
2023-12-23T01:03:56.878Z,20.04
2023-12-23T01:04:28.625Z,20.04
2023-12-23T01:05:00.190Z,20.03
2023-12-23T01:05:31.798Z,19.99
2023-12-23T01:06:03.345Z,20.01
2023-12-23T01:06:34.970Z,20.03
2023-12-23T01:07:06.527Z,20.04
2023-12-23T01:07:38.069Z,20.04
2023-12-23T01:08:09.679Z,20.04
2023-12-23T01:08:41.126Z,20.04
2023-12-23T01:09:12.615Z,20.03
2023-12-23T01:09:44.194Z,20.04
2023-12-23T01:10:15.685Z,20.01
2023-12-23T01:10:47.179Z,20.04
2023-12-23T01:11:18.766Z,20.04
2023-12-23T01:11:50.277Z,20.04
2023-12-23T01:12:21.765Z,20.04
2023-12-23T01:12:53.557Z,20.02
2023-12-23T01:13:25.840Z,20.02
2023-12-23T01:13:57.372Z,20.01
2023-12-23T01:14:28.945Z,20.01
2023-12-23T01:15:00.460Z,20.03
2023-12-23T01:15:31.904Z,20.02
2023-12-23T01:16:03.531Z,20.02
2023-12-23T01:16:35.030Z,20.02
2023-12-23T01:17:06.666Z,20.01
2023-12-23T01:17:38.240Z,20.00
2023-12-23T01:18:09.909Z,20.00
2023-12-23T01:18:41.569Z,20.01
2023-12-23T01:19:13.338Z,20.02
2023-12-23T01:19:44.988Z,20.02
2023-12-23T01:20:16.691Z,20.01
2023-12-23T01:20:48.235Z,20.00
2023-12-23T01:21:19.780Z,20.02
2023-12-23T01:21:51.313Z,20.01
2023-12-23T01:22:22.915Z,20.02
2023-12-23T01:22:54.442Z,20.01
2023-12-23T01:23:26.109Z,20.03
2023-12-23T01:23:57.715Z,20.02
2023-12-23T01:24:29.254Z,20.03
2023-12-23T01:25:00.777Z,20.02
2023-12-23T01:25:32.333Z,20.01
2023-12-23T01:26:03.945Z,20.03
2023-12-23T01:26:35.530Z,20.03
2023-12-23T01:27:07.039Z,20.04
2023-12-23T01:27:38.574Z,20.04
2023-12-23T01:28:10.192Z,20.04
2023-12-23T01:28:41.813Z,20.02
2023-12-23T01:29:13.435Z,20.02
2023-12-23T01:29:44.959Z,20.01
2023-12-23T01:30:16.698Z,20.00
2023-12-23T01:30:48.268Z,20.00
2023-12-23T01:31:19.791Z,20.00
2023-12-23T01:31:51.711Z,19.98
2023-12-23T01:32:23.371Z,20.01
2023-12-23T01:32:54.965Z,20.00
2023-12-23T01:33:26.689Z,19.99
2023-12-23T01:33:58.348Z,20.00
2023-12-23T01:34:30.012Z,19.98
2023-12-23T01:35:01.722Z,20.00
2023-12-23T01:35:33.279Z,20.00
2023-12-23T01:36:04.878Z,19.98
2023-12-23T01:36:36.339Z,19.99
2023-12-23T01:37:07.864Z,20.00
2023-12-23T01:37:39.452Z,19.99
2023-12-23T01:38:11.039Z,20.00
2023-12-23T01:38:42.594Z,20.01
2023-12-23T01:39:14.221Z,20.00
2023-12-23T01:39:45.782Z,19.98
2023-12-23T01:40:17.324Z,19.98
2023-12-23T01:40:48.918Z,19.99
2023-12-23T01:41:20.564Z,19.99
2023-12-23T01:41:52.104Z,19.98
2023-12-23T01:42:23.626Z,19.98
2023-12-23T01:42:55.126Z,20.00
2023-12-23T01:43:26.841Z,20.01
2023-12-23T01:43:58.457Z,19.99
2023-12-23T01:44:30.276Z,20.00
2023-12-23T01:45:01.820Z,20.00
2023-12-23T01:45:36.241Z,20.00
2023-12-23T01:46:08.076Z,20.01
2023-12-23T01:46:39.625Z,19.99
2023-12-23T01:47:11.273Z,20.00
2023-12-23T01:47:43.473Z,20.01
2023-12-23T01:48:15.185Z,19.99
2023-12-23T01:48:46.827Z,20.00
2023-12-23T01:49:18.508Z,19.99
2023-12-23T01:49:50.094Z,20.00
2023-12-23T01:50:21.813Z,20.00
2023-12-23T01:50:53.562Z,20.01
2023-12-23T01:51:25.138Z,20.01
2023-12-23T01:51:56.822Z,20.00
2023-12-23T01:52:28.493Z,20.01
2023-12-23T01:53:00.069Z,20.00
2023-12-23T01:53:32.068Z,19.99
2023-12-23T01:54:05.995Z,20.00
2023-12-23T01:54:37.483Z,20.00
2023-12-23T01:55:09.310Z,20.00
2023-12-23T01:55:40.867Z,19.98
2023-12-23T01:56:12.466Z,19.99
2023-12-23T01:56:43.980Z,19.98
2023-12-23T01:57:15.533Z,19.99
2023-12-23T01:57:47.131Z,19.99
2023-12-23T01:58:18.733Z,19.99
2023-12-23T01:58:50.318Z,20.00
2023-12-23T01:59:21.925Z,19.97
2023-12-23T01:59:53.514Z,19.99
2023-12-23T02:00:25.077Z,19.99
2023-12-23T02:00:56.705Z,19.99
2023-12-23T02:01:28.434Z,19.99
2023-12-23T02:02:00.280Z,20.00
2023-12-23T02:02:31.930Z,20.00
2023-12-23T02:03:03.950Z,20.00
2023-12-23T02:03:35.616Z,20.00
2023-12-23T02:04:07.121Z,20.01
2023-12-23T02:04:39.043Z,20.01
2023-12-23T02:05:10.635Z,19.99
2023-12-23T02:05:42.498Z,20.00
2023-12-23T02:06:14.224Z,19.99
2023-12-23T02:06:45.789Z,20.00
2023-12-23T02:07:17.389Z,20.00
2023-12-23T02:07:48.905Z,19.99
2023-12-23T02:08:20.537Z,19.99
2023-12-23T02:08:52.309Z,19.99
2023-12-23T02:09:23.878Z,20.00
2023-12-23T02:09:55.451Z,20.00
2023-12-23T02:10:27.019Z,20.00
2023-12-23T02:11:01.202Z,20.01
2023-12-23T02:11:32.716Z,20.02
2023-12-23T02:12:08.602Z,20.02
2023-12-23T02:13:05.687Z,20.03
2023-12-23T02:13:46.968Z,20.02
2023-12-23T02:14:20.619Z,20.01
2023-12-23T02:15:02.423Z,20.01
2023-12-23T02:15:34.089Z,20.00
2023-12-23T02:16:05.748Z,20.01
2023-12-23T02:16:37.318Z,20.03
2023-12-23T02:17:09.436Z,20.00
2023-12-23T02:17:41.326Z,20.02
2023-12-23T02:18:13.061Z,20.03
2023-12-23T02:18:44.784Z,20.02
2023-12-23T02:19:16.311Z,20.01
2023-12-23T02:19:48.043Z,20.01
2023-12-23T02:20:19.832Z,20.02
2023-12-23T02:20:51.545Z,20.02
2023-12-23T02:21:23.155Z,20.02
2023-12-23T02:21:54.707Z,20.02
2023-12-23T02:22:26.140Z,20.04
2023-12-23T02:22:57.709Z,20.03
2023-12-23T02:23:29.316Z,20.04
2023-12-23T02:24:00.831Z,20.02
2023-12-23T02:24:32.310Z,20.03
2023-12-23T02:25:03.897Z,20.01
2023-12-23T02:25:35.428Z,20.03
2023-12-23T02:26:06.988Z,20.01
2023-12-23T02:26:38.634Z,20.01
2023-12-23T02:27:10.597Z,20.02
2023-12-23T02:27:44.327Z,20.01
2023-12-23T02:28:15.881Z,20.01
2023-12-23T02:28:47.436Z,20.03
2023-12-23T02:29:19.080Z,20.03
2023-12-23T02:29:51.287Z,20.03
2023-12-23T02:30:23.330Z,20.00
2023-12-23T02:30:55.122Z,20.00
2023-12-23T02:31:26.754Z,20.00
2023-12-23T02:31:58.301Z,20.00
2023-12-23T02:32:29.959Z,20.00
2023-12-23T02:33:01.606Z,20.02
2023-12-23T02:33:33.243Z,20.02
2023-12-23T02:34:04.871Z,20.04
2023-12-23T02:34:36.490Z,20.02
2023-12-23T02:35:08.210Z,19.99
2023-12-23T02:35:39.750Z,20.00
2023-12-23T02:36:11.310Z,20.02
2023-12-23T02:36:42.824Z,20.03
2023-12-23T02:37:14.322Z,20.01
2023-12-23T02:37:45.812Z,20.01
2023-12-23T02:38:17.514Z,20.01
2023-12-23T02:38:49.408Z,20.00
2023-12-23T02:39:20.961Z,20.00
2023-12-23T02:39:52.636Z,20.01
2023-12-23T02:40:24.174Z,20.02
2023-12-23T02:40:55.700Z,20.02
2023-12-23T02:41:27.222Z,20.03
2023-12-23T02:41:58.719Z,20.01
2023-12-23T02:42:30.299Z,20.02
2023-12-23T02:43:01.834Z,20.03
2023-12-23T02:43:33.505Z,20.01
2023-12-23T02:44:05.013Z,20.02
2023-12-23T02:44:36.516Z,20.06
2023-12-23T02:45:08.322Z,20.02
2023-12-23T02:45:39.813Z,20.04
2023-12-23T02:46:11.368Z,20.03
2023-12-23T02:46:42.940Z,20.02
2023-12-23T02:47:14.528Z,20.02
2023-12-23T02:47:46.119Z,20.02
2023-12-23T02:48:17.759Z,20.02
2023-12-23T02:48:49.443Z,20.02
2023-12-23T02:49:20.990Z,20.00
2023-12-23T02:49:52.709Z,19.99
2023-12-23T02:50:24.340Z,20.01
2023-12-23T02:50:55.786Z,20.03
2023-12-23T02:51:27.254Z,20.03
2023-12-23T02:51:58.843Z,20.03
2023-12-23T02:52:30.386Z,20.03
2023-12-23T02:53:02.016Z,20.02
2023-12-23T02:53:33.632Z,20.02
2023-12-23T02:54:05.270Z,20.01
2023-12-23T02:54:36.813Z,20.02
2023-12-23T02:55:08.365Z,20.02
2023-12-23T02:55:40.053Z,20.02
2023-12-23T02:56:11.558Z,20.02
2023-12-23T02:56:43.173Z,20.00
2023-12-23T02:57:14.653Z,20.00
2023-12-23T02:57:46.191Z,19.99
2023-12-23T02:58:17.685Z,20.00
2023-12-23T02:58:49.258Z,20.01
2023-12-23T02:59:20.988Z,20.03
2023-12-23T02:59:52.538Z,20.01
2023-12-23T03:00:24.072Z,20.02
2023-12-23T03:00:55.557Z,20.02
2023-12-23T03:01:27.056Z,20.03
2023-12-23T03:01:58.532Z,20.02
2023-12-23T03:02:30.115Z,20.02
2023-12-23T03:03:01.773Z,20.01
2023-12-23T03:03:33.426Z,20.02
2023-12-23T03:04:04.956Z,20.03
2023-12-23T03:04:36.457Z,20.04
2023-12-23T03:05:08.314Z,20.05
2023-12-23T03:05:39.978Z,20.04
2023-12-23T03:06:14.652Z,20.04
2023-12-23T03:06:46.227Z,20.03
2023-12-23T03:07:17.777Z,20.05
2023-12-23T03:07:49.394Z,20.04
2023-12-23T03:08:21.050Z,20.03
2023-12-23T03:08:52.691Z,20.05
2023-12-23T03:09:24.141Z,20.05
2023-12-23T03:09:55.864Z,20.05
2023-12-23T03:10:27.315Z,20.03
2023-12-23T03:10:58.880Z,20.05
2023-12-23T03:11:30.477Z,20.07
2023-12-23T03:12:02.070Z,20.06
2023-12-23T03:12:33.623Z,20.05
2023-12-23T03:13:05.284Z,20.03
2023-12-23T03:13:36.853Z,20.04
2023-12-23T03:14:08.367Z,20.05
2023-12-23T03:14:40.893Z,20.07
2023-12-23T03:15:12.402Z,20.07
2023-12-23T03:15:43.973Z,20.05
2023-12-23T03:16:15.813Z,20.05
2023-12-23T03:16:47.322Z,20.08
2023-12-23T03:17:19.086Z,20.10
2023-12-23T03:17:50.781Z,20.06
2023-12-23T03:18:22.427Z,20.08
2023-12-23T03:18:53.997Z,20.05
2023-12-23T03:19:25.636Z,20.04
2023-12-23T03:19:57.294Z,20.05
2023-12-23T03:20:28.791Z,20.08
2023-12-23T03:21:00.366Z,20.07
2023-12-23T03:21:31.866Z,20.06
2023-12-23T03:22:03.487Z,20.07
2023-12-23T03:22:35.137Z,20.08
2023-12-23T03:23:06.711Z,20.07
2023-12-23T03:23:38.272Z,20.07
2023-12-23T03:24:09.893Z,20.06
2023-12-23T03:24:41.413Z,20.07
2023-12-23T03:25:13.047Z,20.07
2023-12-23T03:25:44.569Z,20.07
2023-12-23T03:26:16.216Z,20.05
2023-12-23T03:26:47.794Z,20.05
2023-12-23T03:27:19.328Z,20.04
2023-12-23T03:27:50.815Z,20.05
2023-12-23T03:28:22.339Z,20.05
2023-12-23T03:28:53.797Z,20.05
2023-12-23T03:29:25.519Z,20.06
2023-12-23T03:29:57.105Z,20.03
2023-12-23T03:30:28.623Z,20.04
2023-12-23T03:31:00.309Z,20.07
2023-12-23T03:31:31.897Z,20.07
2023-12-23T03:32:03.411Z,20.07
2023-12-23T03:32:34.987Z,20.07
2023-12-23T03:33:06.520Z,20.09
2023-12-23T03:33:38.144Z,20.11
2023-12-23T03:34:09.829Z,20.05
2023-12-23T03:34:41.662Z,20.06
2023-12-23T03:35:13.208Z,20.05
2023-12-23T03:35:45.021Z,20.04
2023-12-23T03:36:17.557Z,20.05
2023-12-23T03:36:49.178Z,20.05
2023-12-23T03:37:20.826Z,20.06
2023-12-23T03:37:52.282Z,20.06
2023-12-23T03:38:23.871Z,20.05
2023-12-23T03:38:55.720Z,20.07
2023-12-23T03:39:27.282Z,20.05
2023-12-23T03:39:58.931Z,20.05
2023-12-23T03:40:30.603Z,20.04
2023-12-23T03:41:02.151Z,20.05
2023-12-23T03:41:33.687Z,20.07
2023-12-23T03:42:05.260Z,20.08
2023-12-23T03:42:36.827Z,20.06
2023-12-23T03:43:08.405Z,20.08
2023-12-23T03:43:39.987Z,20.07
2023-12-23T03:44:11.574Z,20.08
2023-12-23T03:44:43.200Z,20.07
2023-12-23T03:45:15.057Z,20.07
2023-12-23T03:45:46.657Z,20.09
2023-12-23T03:46:18.769Z,20.08
2023-12-23T03:46:50.326Z,20.07
2023-12-23T03:47:21.870Z,20.08
2023-12-23T03:47:53.343Z,20.05
2023-12-23T03:48:25.876Z,20.04
2023-12-23T03:48:57.416Z,20.04
2023-12-23T03:49:28.981Z,20.05
2023-12-23T03:50:00.719Z,20.06
2023-12-23T03:50:32.261Z,20.04
2023-12-23T03:51:03.921Z,20.05
2023-12-23T03:51:35.490Z,20.05
2023-12-23T03:52:07.069Z,20.04
2023-12-23T03:52:38.581Z,20.04
2023-12-23T03:53:10.265Z,20.03
2023-12-23T03:53:41.943Z,20.04
2023-12-23T03:54:13.579Z,20.02
2023-12-23T03:54:45.157Z,20.02
2023-12-23T03:55:16.724Z,20.03
2023-12-23T03:55:48.231Z,20.02
2023-12-23T03:56:19.778Z,20.02
2023-12-23T03:56:52.182Z,20.03
2023-12-23T03:57:24.030Z,20.02
2023-12-23T03:57:56.032Z,20.02
2023-12-23T03:58:27.762Z,20.01
2023-12-23T03:58:59.504Z,20.02
2023-12-23T03:59:31.197Z,20.04
2023-12-23T04:00:02.993Z,20.03
2023-12-23T04:00:34.541Z,20.04
2023-12-23T04:01:06.088Z,20.03
2023-12-23T04:01:37.718Z,20.04
2023-12-23T04:02:09.307Z,20.03
2023-12-23T04:02:40.889Z,20.02
2023-12-23T04:03:12.543Z,20.01
2023-12-23T04:03:44.023Z,20.03
2023-12-23T04:04:15.467Z,20.03
2023-12-23T04:04:47.038Z,20.05
2023-12-23T04:05:18.599Z,20.04
2023-12-23T04:05:50.163Z,20.05
2023-12-23T04:06:21.736Z,20.05
2023-12-23T04:06:53.518Z,20.06
2023-12-23T04:07:25.039Z,20.05
2023-12-23T04:07:56.549Z,20.05
2023-12-23T04:08:28.104Z,20.05
2023-12-23T04:08:59.632Z,20.03
2023-12-23T04:09:31.119Z,20.04
2023-12-23T04:10:02.641Z,20.03
2023-12-23T04:10:34.127Z,20.04
2023-12-23T04:11:05.844Z,20.05
2023-12-23T04:11:37.414Z,20.03
2023-12-23T04:12:10.305Z,20.05
2023-12-23T04:12:41.823Z,20.05
2023-12-23T04:13:13.434Z,20.04
2023-12-23T04:13:45.044Z,20.05
2023-12-23T04:14:16.761Z,20.04
2023-12-23T04:14:48.371Z,20.03
2023-12-23T04:15:20.032Z,20.02
2023-12-23T04:15:51.638Z,20.02
2023-12-23T04:16:23.257Z,20.03
2023-12-23T04:16:54.837Z,20.05
2023-12-23T04:17:26.440Z,20.03
2023-12-23T04:17:58.085Z,20.04
2023-12-23T04:18:29.756Z,20.03
2023-12-23T04:19:01.541Z,20.05
2023-12-23T04:19:33.437Z,20.03
2023-12-23T04:20:05.286Z,20.05
2023-12-23T04:20:36.929Z,20.06
2023-12-23T04:21:08.484Z,20.08
2023-12-23T04:21:40.203Z,20.05
2023-12-23T04:22:11.717Z,20.07
2023-12-23T04:22:43.293Z,20.07
2023-12-23T04:23:15.054Z,20.07
2023-12-23T04:23:46.574Z,20.05
2023-12-23T04:24:18.205Z,20.01
2023-12-23T04:24:49.750Z,20.02
2023-12-23T04:25:22.958Z,20.03
2023-12-23T04:25:54.943Z,20.04
2023-12-23T04:26:26.530Z,20.02
2023-12-23T04:26:58.106Z,20.02
2023-12-23T04:27:29.668Z,20.03
2023-12-23T04:28:01.194Z,20.04
2023-12-23T04:28:32.849Z,20.05
2023-12-23T04:29:04.780Z,20.07
2023-12-23T04:29:36.376Z,20.04
2023-12-23T04:30:08.049Z,20.04
2023-12-23T04:30:39.916Z,20.02
2023-12-23T04:31:11.601Z,20.00
2023-12-23T04:31:43.211Z,20.00
2023-12-23T04:32:14.782Z,20.01
2023-12-23T04:32:46.526Z,20.01
2023-12-23T04:33:18.440Z,20.01
2023-12-23T04:33:50.058Z,20.01
2023-12-23T04:34:21.705Z,20.01
2023-12-23T04:34:53.289Z,20.02
2023-12-23T04:35:24.892Z,20.02
2023-12-23T04:35:56.402Z,20.02
2023-12-23T04:36:27.963Z,20.02
2023-12-23T04:36:59.415Z,20.01
2023-12-23T04:37:30.961Z,20.01
2023-12-23T04:38:02.595Z,19.99
2023-12-23T04:38:34.206Z,19.97
2023-12-23T04:39:05.757Z,19.99
2023-12-23T04:39:37.274Z,20.00
2023-12-23T04:40:09.286Z,19.99
2023-12-23T04:40:41.142Z,20.00
2023-12-23T04:41:12.722Z,20.00
2023-12-23T04:41:44.262Z,20.00
2023-12-23T04:42:15.865Z,20.00
2023-12-23T04:42:47.536Z,20.01
2023-12-23T04:43:19.143Z,20.00
2023-12-23T04:43:50.715Z,20.02
2023-12-23T04:44:22.445Z,20.02
2023-12-23T04:44:53.967Z,20.03
2023-12-23T04:45:25.481Z,20.01
2023-12-23T04:45:57.135Z,20.02
2023-12-23T04:46:28.660Z,20.00
2023-12-23T04:47:00.274Z,20.01
2023-12-23T04:47:31.893Z,20.01
2023-12-23T04:48:03.820Z,19.99
2023-12-23T04:48:35.349Z,20.00
2023-12-23T04:49:07.080Z,20.00
2023-12-23T04:49:39.084Z,20.00
2023-12-23T04:50:10.683Z,19.98
2023-12-23T04:50:42.292Z,20.00
2023-12-23T04:51:13.886Z,20.02
2023-12-23T04:51:45.388Z,20.03
2023-12-23T04:52:16.880Z,20.02
2023-12-23T04:52:48.664Z,20.01
2023-12-23T04:53:22.595Z,20.03
2023-12-23T04:53:54.218Z,20.02
2023-12-23T04:54:25.829Z,20.03
2023-12-23T04:54:57.326Z,20.02
2023-12-23T04:55:28.862Z,20.03
2023-12-23T04:56:00.416Z,20.02
2023-12-23T04:56:31.970Z,20.03
2023-12-23T04:57:03.570Z,20.02
2023-12-23T04:57:35.118Z,20.03
2023-12-23T04:58:06.645Z,20.04
2023-12-23T04:58:38.195Z,20.03
2023-12-23T04:59:09.854Z,20.03
2023-12-23T04:59:41.380Z,20.04
2023-12-23T05:00:13.206Z,20.02
2023-12-23T05:00:44.823Z,20.05
2023-12-23T05:01:16.422Z,20.03
2023-12-23T05:01:48.039Z,20.01
2023-12-23T05:02:19.636Z,19.99
2023-12-23T05:02:51.653Z,20.00
2023-12-23T05:03:23.393Z,19.98
2023-12-23T05:03:55.028Z,19.99
2023-12-23T05:04:26.536Z,19.99
2023-12-23T05:04:58.062Z,19.99
2023-12-23T05:05:29.659Z,19.98
2023-12-23T05:06:01.326Z,19.99
2023-12-23T05:06:32.812Z,20.00
2023-12-23T05:07:04.426Z,19.99
2023-12-23T05:07:35.985Z,20.00
2023-12-23T05:08:07.678Z,20.00
2023-12-23T05:08:39.253Z,19.99
2023-12-23T05:09:10.697Z,19.99
2023-12-23T05:09:42.311Z,19.99
2023-12-23T05:10:13.955Z,20.00
2023-12-23T05:10:45.500Z,20.00
2023-12-23T05:11:17.136Z,19.99
2023-12-23T05:11:48.858Z,19.99
2023-12-23T05:12:20.482Z,19.99
2023-12-23T05:12:52.246Z,19.98
2023-12-23T05:13:23.917Z,20.01
2023-12-23T05:13:55.472Z,20.00
2023-12-23T05:14:27.141Z,19.99
2023-12-23T05:14:58.676Z,20.00
2023-12-23T05:15:30.227Z,20.02
2023-12-23T05:16:01.808Z,19.99
2023-12-23T05:16:33.437Z,20.01
2023-12-23T05:17:05.189Z,19.99
2023-12-23T05:17:36.916Z,19.97
2023-12-23T05:18:08.827Z,19.98
2023-12-23T05:18:40.556Z,19.98
2023-12-23T05:19:12.261Z,19.97
2023-12-23T05:19:43.974Z,19.97
2023-12-23T05:20:15.635Z,19.97
2023-12-23T05:20:47.238Z,20.00
2023-12-23T05:21:18.747Z,19.99
2023-12-23T05:21:50.311Z,19.99
2023-12-23T05:22:21.880Z,20.00
2023-12-23T05:22:53.853Z,20.00
2023-12-23T05:23:25.793Z,20.00
2023-12-23T05:23:57.395Z,20.00
2023-12-23T05:24:28.900Z,20.00
2023-12-23T05:25:00.410Z,20.00
2023-12-23T05:25:31.932Z,20.01
2023-12-23T05:26:03.522Z,20.00
2023-12-23T05:26:35.102Z,20.00
2023-12-23T05:27:07.187Z,20.01
2023-12-23T05:27:38.767Z,20.01
2023-12-23T05:28:10.324Z,20.01
2023-12-23T05:28:42.013Z,20.00
2023-12-23T05:29:13.699Z,20.00
2023-12-23T05:29:45.293Z,20.01
2023-12-23T05:30:16.781Z,20.00
2023-12-23T05:30:48.341Z,20.00
2023-12-23T05:31:19.980Z,20.01
2023-12-23T05:31:51.582Z,20.02
2023-12-23T05:32:23.062Z,20.03
2023-12-23T05:32:55.048Z,20.02
2023-12-23T05:33:26.885Z,20.01
2023-12-23T05:33:58.521Z,20.02
2023-12-23T05:34:30.212Z,20.03
2023-12-23T05:35:01.837Z,20.03
2023-12-23T05:35:33.361Z,20.02
2023-12-23T05:36:05.071Z,20.00
2023-12-23T05:36:36.570Z,20.01
2023-12-23T05:37:08.104Z,20.01
2023-12-23T05:37:39.678Z,20.00
2023-12-23T05:38:11.284Z,20.00
2023-12-23T05:38:42.795Z,19.98
2023-12-23T05:39:14.315Z,19.98
2023-12-23T05:39:45.806Z,19.96
2023-12-23T05:40:17.377Z,19.97
2023-12-23T05:40:48.886Z,19.98
2023-12-23T05:41:20.411Z,19.99
2023-12-23T05:41:52.006Z,19.97
2023-12-23T05:42:23.593Z,19.98
2023-12-23T05:42:55.068Z,19.98
2023-12-23T05:43:26.578Z,19.98
2023-12-23T05:43:58.093Z,19.98
2023-12-23T05:44:29.726Z,19.97
2023-12-23T05:45:01.245Z,19.99
2023-12-23T05:45:32.768Z,19.99
2023-12-23T05:46:04.337Z,20.01
2023-12-23T05:46:35.928Z,20.00
2023-12-23T05:47:07.514Z,19.98
2023-12-23T05:47:39.084Z,19.99
2023-12-23T05:48:10.930Z,19.98
2023-12-23T05:48:42.605Z,19.97
2023-12-23T05:49:14.203Z,20.00
2023-12-23T05:49:45.719Z,19.99
2023-12-23T05:50:17.561Z,19.99
2023-12-23T05:50:49.115Z,19.99
2023-12-23T05:51:20.647Z,19.99
2023-12-23T05:51:54.913Z,20.00
2023-12-23T05:52:26.482Z,19.98
2023-12-23T05:52:57.943Z,19.99
2023-12-23T05:53:29.518Z,19.97
2023-12-23T05:54:01.068Z,19.99
2023-12-23T05:54:32.520Z,19.99
2023-12-23T05:55:04.239Z,19.99
2023-12-23T05:55:35.854Z,19.94
2023-12-23T05:56:07.762Z,19.94
2023-12-23T05:56:39.462Z,19.94
2023-12-23T05:57:11.058Z,19.97
2023-12-23T05:57:42.601Z,19.98
2023-12-23T05:58:14.099Z,19.96
2023-12-23T05:58:45.614Z,19.98
2023-12-23T05:59:17.326Z,19.97
2023-12-23T05:59:49.327Z,19.97
2023-12-23T06:00:20.998Z,19.98
2023-12-23T06:00:52.764Z,19.99
2023-12-23T06:01:24.323Z,19.98
2023-12-23T06:01:55.992Z,19.98
2023-12-23T06:02:27.653Z,20.00
2023-12-23T06:02:59.243Z,20.00
2023-12-23T06:03:30.772Z,19.99
2023-12-23T06:04:02.333Z,19.99
2023-12-23T06:04:34.138Z,19.99
2023-12-23T06:05:05.900Z,19.96
2023-12-23T06:05:37.621Z,19.98
2023-12-23T06:06:09.879Z,19.98
2023-12-23T06:06:41.338Z,19.98
2023-12-23T06:07:12.824Z,20.00
2023-12-23T06:07:44.380Z,20.00
2023-12-23T06:08:15.976Z,20.00
2023-12-23T06:08:47.515Z,20.00
2023-12-23T06:09:19.012Z,19.99
2023-12-23T06:09:50.506Z,19.98
2023-12-23T06:10:22.213Z,19.99
2023-12-23T06:10:58.065Z,19.97
2023-12-23T06:11:30.470Z,19.98
2023-12-23T06:12:01.968Z,19.99
2023-12-23T06:12:33.557Z,19.98
2023-12-23T06:13:05.127Z,20.00
2023-12-23T06:13:36.620Z,20.00
2023-12-23T06:14:08.109Z,20.01
2023-12-23T06:14:40.652Z,19.98
2023-12-23T06:15:12.196Z,20.00
2023-12-23T06:15:43.735Z,19.97
2023-12-23T06:16:15.270Z,19.99
2023-12-23T06:16:46.819Z,20.00
2023-12-23T06:17:18.402Z,20.00
2023-12-23T06:17:50.075Z,20.01
2023-12-23T06:18:21.721Z,20.01
2023-12-23T06:18:53.265Z,20.00
2023-12-23T06:19:24.995Z,20.00
2023-12-23T06:19:56.729Z,20.01
2023-12-23T06:20:28.341Z,19.98
2023-12-23T06:20:59.948Z,19.99
2023-12-23T06:21:31.533Z,20.02
2023-12-23T06:22:03.074Z,19.99
2023-12-23T06:22:34.570Z,19.99
2023-12-23T06:23:06.072Z,20.01
2023-12-23T06:23:37.668Z,19.98
2023-12-23T06:24:09.205Z,19.97
2023-12-23T06:24:40.798Z,19.99
2023-12-23T06:25:12.272Z,19.98
2023-12-23T06:25:43.819Z,19.99
2023-12-23T06:26:15.295Z,19.98
2023-12-23T06:26:46.806Z,19.97
2023-12-23T06:27:18.283Z,19.99
2023-12-23T06:27:49.869Z,20.00
2023-12-23T06:28:21.389Z,20.00
2023-12-23T06:28:53.034Z,19.99
2023-12-23T06:29:24.810Z,19.94
2023-12-23T06:29:56.436Z,19.98
2023-12-23T06:30:28.074Z,19.94
2023-12-23T06:30:59.604Z,19.97
2023-12-23T06:31:31.126Z,19.98
2023-12-23T06:32:02.666Z,19.98
2023-12-23T06:32:34.669Z,20.00
2023-12-23T06:33:06.350Z,19.98
2023-12-23T06:33:38.107Z,19.99
2023-12-23T06:34:09.716Z,19.99
2023-12-23T06:34:41.306Z,20.00
2023-12-23T06:35:12.886Z,20.01
2023-12-23T06:35:44.379Z,20.02
2023-12-23T06:36:15.909Z,20.00
2023-12-23T06:36:47.472Z,19.99
2023-12-23T06:37:18.976Z,20.01
2023-12-23T06:37:50.617Z,20.00
2023-12-23T06:38:22.255Z,20.00
2023-12-23T06:38:53.772Z,19.99
2023-12-23T06:39:25.480Z,20.00
2023-12-23T06:39:56.949Z,19.99
2023-12-23T06:40:29.344Z,19.97
2023-12-23T06:41:00.849Z,20.00
2023-12-23T06:41:32.368Z,20.00
2023-12-23T06:42:03.909Z,20.01
2023-12-23T06:42:35.384Z,19.98
2023-12-23T06:43:43.393Z,19.98
2023-12-23T06:43:58.566Z,20.00
2023-12-23T06:44:30.071Z,20.01
2023-12-23T06:45:01.689Z,20.00
2023-12-23T06:45:33.230Z,19.99
2023-12-23T06:46:04.839Z,19.96
2023-12-23T06:46:36.312Z,19.96
2023-12-23T06:47:07.872Z,19.99
2023-12-23T06:47:39.453Z,19.98
2023-12-23T06:48:11.171Z,20.00
2023-12-23T06:48:42.901Z,19.98
2023-12-23T06:49:14.608Z,19.97